Time;durP1;ratioP1;P1;durP2;ratioP2;P2;SDS_P1;SDS_P2;PMS_P1;PMS_P2;Temp;Humidity;BMP_temperature;BMP_pressure;BME280_temperature;BME280_humidity;BME280_pressure;Samples;Min_cycle;Max_cycle;Signal;HPM_P1;HPM_P2
2022/06/12 00:00:06;;;;;;;12.13;2.95;;;14.30;99.90;;;;;;5079778;28;20040;-71
2022/06/12 00:02:32;;;;;;;15.00;3.33;;;14.30;99.90;;;;;;5088152;28;20094;-71
2022/06/12 00:04:57;;;;;;;11.07;2.50;;;14.30;99.90;;;;;;5085668;28;20071;-71
2022/06/12 00:07:23;;;;;;;10.45;3.20;;;14.30;99.90;;;;;;5086002;28;20383;-71
2022/06/12 00:09:48;;;;;;;10.75;2.72;;;14.20;99.90;;;;;;5089021;28;20500;-71
2022/06/12 00:12:14;;;;;;;13.27;2.97;;;14.20;99.90;;;;;;5082859;28;20047;-72
2022/06/12 00:14:40;;;;;;;7.68;2.38;;;14.20;99.90;;;;;;5088339;28;20389;-71
2022/06/12 00:17:06;;;;;;;10.25;2.55;;;14.20;99.90;;;;;;5086866;28;20043;-71
2022/06/12 00:19:31;;;;;;;10.98;3.00;;;14.20;99.90;;;;;;5082503;28;20044;-71
2022/06/12 00:21:58;;;;;;;12.63;2.50;;;14.20;99.90;;;;;;5087305;28;20106;-71
2022/06/12 00:24:24;;;;;;;9.43;2.92;;;14.10;99.90;;;;;;5085690;28;20044;-71
2022/06/12 00:26:53;;;;;;;14.23;2.97;;;14.10;99.90;;;;;;5088360;28;20036;-71
2022/06/12 00:29:22;;;;;;;9.40;2.97;;;14.10;99.90;;;;;;5085389;28;20050;-71
2022/06/12 00:31:52;;;;;;;8.45;2.45;;;14.10;99.90;;;;;;5086253;28;20433;-71
2022/06/12 00:34:21;;;;;;;10.35;2.70;;;14.10;99.90;;;;;;5087552;28;20189;-71
2022/06/12 00:36:47;;;;;;;10.60;3.42;;;14.10;99.90;;;;;;5086095;28;20414;-70
2022/06/12 00:39:15;;;;;;;7.78;2.45;;;14.10;99.90;;;;;;5077293;28;20036;-70
2022/06/12 00:41:47;;;;;;;11.57;2.85;;;14.10;99.90;;;;;;5084728;28;20421;-72
2022/06/12 00:44:29;;;;;;;8.63;2.60;;;14.10;99.90;;;;;;5086031;28;20150;-71
2022/06/12 00:47:04;;;;;;;8.52;2.60;;;14.10;99.90;;;;;;5081507;28;20054;-71
2022/06/12 00:49:39;;;;;;;13.45;3.15;;;14.10;99.90;;;;;;5085598;28;20048;-71
2022/06/12 00:52:17;;;;;;;10.55;3.05;;;14.00;99.90;;;;;;5086541;28;20534;-71
2022/06/12 00:54:49;;;;;;;16.45;3.60;;;14.10;99.90;;;;;;5087865;28;20471;-71
2022/06/12 00:57:18;;;;;;;22.23;4.72;;;14.00;99.90;;;;;;5076880;28;20058;-71
2022/06/12 00:59:54;;;;;;;16.15;2.80;;;14.00;99.90;;;;;;5068953;28;20044;-72
2022/06/12 01:02:27;;;;;;;13.70;3.20;;;14.00;99.90;;;;;;5085668;28;20063;-70
2022/06/12 01:07:42;;;;;;;12.80;3.85;;;14.00;99.90;;;;;;5087322;28;20048;-70
2022/06/12 01:10:11;;;;;;;19.33;3.78;;;14.00;99.90;;;;;;5092683;28;20055;-71
2022/06/12 01:12:48;;;;;;;12.20;2.70;;;14.00;99.90;;;;;;5093019;28;20387;-71
2022/06/12 01:15:22;;;;;;;18.83;3.95;;;13.90;99.90;;;;;;5085083;28;20072;-71
2022/06/12 01:17:49;;;;;;;16.48;3.65;;;13.90;99.90;;;;;;5092530;28;20059;-69
2022/06/12 01:20:19;;;;;;;14.15;3.45;;;13.90;99.90;;;;;;5089847;28;20141;-70
2022/06/12 01:23:20;;;;;;;13.55;3.33;;;13.90;99.90;;;;;;5085670;28;20056;-70
2022/06/12 01:25:48;;;;;;;17.02;3.25;;;13.90;99.90;;;;;;5085951;28;20093;-70
2022/06/12 01:28:32;;;;;;;13.07;3.25;;;13.80;99.90;;;;;;5093656;28;20416;-70
2022/06/12 01:31:00;;;;;;;14.57;3.50;;;13.80;99.90;;;;;;5101288;27;20498;-70
2022/06/12 01:33:30;;;;;;;12.02;2.58;;;13.80;99.90;;;;;;5093412;28;20050;-72
2022/06/12 01:36:16;;;;;;;12.00;3.00;;;13.80;99.90;;;;;;5093177;28;20083;-70
2022/06/12 01:39:10;;;;;;;14.85;3.30;;;13.70;99.90;;;;;;5091689;28;20044;-70
2022/06/12 01:42:13;;;;;;;13.23;3.42;;;13.70;99.90;;;;;;5074761;28;20052;-71
2022/06/12 01:44:45;;;;;;;12.70;3.08;;;13.70;99.90;;;;;;5087374;28;20047;-71
2022/06/12 01:47:38;;;;;;;11.02;3.33;;;13.70;99.90;;;;;;5094500;28;20918;-71
2022/06/12 01:50:36;;;;;;;10.55;2.78;;;13.70;99.90;;;;;;5093057;28;20059;-71
2022/06/12 01:53:01;;;;;;;10.10;3.35;;;13.70;99.90;;;;;;5094000;28;20117;-71
2022/06/12 01:55:51;;;;;;;10.63;2.63;;;13.70;99.90;;;;;;5088068;28;20486;-71
2022/06/12 01:58:26;;;;;;;13.82;3.58;;;13.70;99.90;;;;;;5090914;28;20048;-70
2022/06/12 02:01:04;;;;;;;10.70;2.72;;;13.70;99.90;;;;;;5082465;28;20405;-71
2022/06/12 02:03:39;;;;;;;12.48;2.50;;;13.60;99.90;;;;;;5091907;28;20501;-71
2022/06/12 02:06:11;;;;;;;15.23;3.15;;;13.60;99.90;;;;;;5089890;28;20045;-71
2022/06/12 02:08:42;;;;;;;12.10;2.90;;;13.60;99.90;;;;;;5081952;28;20480;-71
2022/06/12 02:14:07;;;;;;;14.35;2.78;;;13.60;99.90;;;;;;5072316;28;20072;-71
2022/06/12 02:16:40;;;;;;;12.27;3.42;;;13.60;99.90;;;;;;5082622;28;20044;-71
2022/06/12 02:19:21;;;;;;;11.02;2.70;;;13.60;99.90;;;;;;5092641;28;20047;-70
2022/06/12 02:21:56;;;;;;;12.23;2.95;;;13.60;99.90;;;;;;5099834;28;20477;-71
2022/06/12 02:24:29;;;;;;;10.65;2.78;;;13.60;99.90;;;;;;5090514;28;20130;-71
2022/06/12 02:27:05;;;;;;;8.90;2.70;;;13.60;99.90;;;;;;5075873;28;20044;-71
2022/06/12 02:29:38;;;;;;;12.93;3.45;;;13.60;99.90;;;;;;5089013;28;20052;-71
2022/06/12 02:32:14;;;;;;;11.85;2.85;;;13.60;99.90;;;;;;5087166;28;20062;-71
2022/06/12 02:34:46;;;;;;;15.32;3.45;;;13.60;99.90;;;;;;5076594;28;20049;-71
2022/06/12 02:37:18;;;;;;;13.77;3.15;;;13.60;99.90;;;;;;5088512;28;20051;-70
2022/06/12 02:39:51;;;;;;;16.55;3.28;;;13.60;99.90;;;;;;5077476;28;20048;-71
2022/06/12 02:42:27;;;;;;;11.68;3.50;;;13.60;99.90;;;;;;5086996;28;20040;-71
2022/06/12 02:44:58;;;;;;;10.88;3.50;;;13.50;99.90;;;;;;5089225;28;20473;-71
2022/06/12 02:47:27;;;;;;;14.75;3.38;;;13.50;99.90;;;;;;5081522;28;20469;-71
2022/06/12 02:49:56;;;;;;;14.15;2.78;;;13.50;99.90;;;;;;5089402;28;20048;-71
2022/06/12 02:52:35;;;;;;;12.32;4.00;;;13.50;99.90;;;;;;5088846;28;20079;-70
2022/06/12 02:55:17;;;;;;;15.90;3.60;;;13.50;99.90;;;;;;5086415;28;20139;-71
2022/06/12 02:58:07;;;;;;;12.32;3.20;;;13.50;99.90;;;;;;5076220;28;20067;-71
2022/06/12 03:00:35;;;;;;;10.02;2.90;;;13.50;99.90;;;;;;5089417;28;20083;-71
2022/06/12 03:03:01;;;;;;;;;;;13.50;99.90;;;;;;5085982;28;20127;-71
2022/06/12 03:05:30;;;;;;;12.48;3.28;;;13.50;99.90;;;;;;5084747;28;20019;-70
2022/06/12 03:08:01;;;;;;;16.48;3.40;;;13.50;99.90;;;;;;5088118;28;20044;-71
2022/06/12 03:10:32;;;;;;;13.02;3.22;;;13.50;99.90;;;;;;5089085;28;20044;-71
2022/06/12 03:12:57;;;;;;;7.63;2.88;;;13.40;99.90;;;;;;5088929;28;20051;-71
2022/06/12 03:15:46;;;;;;;17.63;3.40;;;13.40;99.90;;;;;;5088551;28;20048;-71
2022/06/12 03:18:20;;;;;;;17.35;3.10;;;13.40;99.90;;;;;;5089313;28;20109;-71
2022/06/12 03:20:54;;;;;;;10.10;2.55;;;13.40;99.90;;;;;;5086919;28;20035;-71
2022/06/12 03:23:34;;;;;;;13.15;2.80;;;13.40;99.90;;;;;;5073067;28;20061;-71
2022/06/12 03:26:04;;;;;;;12.45;3.58;;;13.40;99.90;;;;;;5083232;28;20044;-71
2022/06/12 03:28:36;;;;;;;11.85;3.05;;;13.30;99.90;;;;;;5088104;28;20052;-71
2022/06/12 03:31:12;;;;;;;16.33;3.33;;;13.30;99.90;;;;;;5088445;28;20044;-71
2022/06/12 03:33:55;;;;;;;13.88;3.40;;;13.30;99.90;;;;;;5089528;28;20489;-71
2022/06/12 03:36:42;;;;;;;17.20;3.40;;;13.30;99.90;;;;;;5087531;28;20047;-70
2022/06/12 03:39:20;;;;;;;11.57;3.28;;;13.30;99.90;;;;;;5087883;28;20046;-70
2022/06/12 03:41:52;;;;;;;13.60;3.45;;;13.30;99.90;;;;;;5085232;28;20051;-71
2022/06/12 03:44:24;;;;;;;22.08;3.90;;;13.20;99.90;;;;;;5089239;28;20092;-70
2022/06/12 03:47:05;;;;;;;11.43;3.25;;;13.20;99.90;;;;;;5087910;28;20044;-71
2022/06/12 03:49:36;;;;;;;13.95;3.72;;;13.20;99.90;;;;;;5088884;28;20044;-71
2022/06/12 03:52:14;;;;;;;9.35;2.83;;;13.20;99.90;;;;;;5087720;28;20386;-71
2022/06/12 03:55:03;;;;;;;11.68;3.08;;;13.30;99.90;;;;;;5084933;28;20405;-71
2022/06/12 03:57:51;;;;;;;18.13;3.20;;;13.20;99.90;;;;;;5087425;28;20044;-72
2022/06/12 04:00:30;;;;;;;12.27;2.88;;;13.20;99.90;;;;;;5080276;28;20524;-72
2022/06/12 04:03:12;;;;;;;;;;;13.20;99.90;;;;;;5086537;28;20056;-72
2022/06/12 04:05:44;;;;;;;12.32;2.83;;;13.30;99.90;;;;;;5086511;28;19924;-72
2022/06/12 04:08:19;;;;;;;9.35;2.78;;;13.30;99.90;;;;;;5076005;28;20048;-71
2022/06/12 04:10:45;;;;;;;10.30;2.80;;;13.30;99.90;;;;;;5086576;28;20168;-71
2022/06/12 04:13:14;;;;;;;12.55;3.55;;;13.30;99.90;;;;;;5084971;28;20548;-71
2022/06/12 04:15:43;;;;;;;;;;;13.30;99.90;;;;;;5085214;28;20044;-70
2022/06/12 04:18:09;;;;;;;;;;;13.30;99.90;;;;;;5080956;28;20416;-72
2022/06/12 04:20:37;;;;;;;20.27;3.58;;;13.30;99.90;;;;;;5088196;28;19970;-71
2022/06/12 04:23:18;;;;;;;17.48;2.97;;;13.40;99.90;;;;;;5083849;28;20048;-72
2022/06/12 04:25:57;;;;;;;11.50;2.83;;;13.40;99.90;;;;;;5081350;28;20044;-70
2022/06/12 04:28:31;;;;;;;12.65;3.28;;;13.40;99.90;;;;;;5079818;28;20079;-71
2022/06/12 04:30:59;;;;;;;16.35;3.05;;;13.60;99.90;;;;;;5086897;28;20367;-71
2022/06/12 04:34:01;;;;;;;9.35;3.25;;;13.60;99.90;;;;;;5087163;28;20048;-71
2022/06/12 04:36:27;;;;;;;16.80;3.03;;;13.70;99.90;;;;;;5082929;28;20052;-71
2022/06/12 04:38:55;;;;;;;12.20;3.22;;;13.70;99.90;;;;;;5087849;28;20081;-71
2022/06/12 04:41:27;;;;;;;13.80;3.13;;;13.80;99.90;;;;;;5082896;28;20044;-70
2022/06/12 04:43:52;;;;;;;10.27;3.17;;;13.90;99.90;;;;;;5085281;28;20110;-71
2022/06/12 04:46:19;;;;;;;16.42;3.17;;;13.90;99.90;;;;;;5081342;28;20447;-72
2022/06/12 04:48:47;;;;;;;13.50;2.97;;;13.90;99.90;;;;;;5084273;28;20056;-70
2022/06/12 04:51:13;;;;;;;11.55;2.90;;;14.00;99.90;;;;;;5085980;28;20490;-70
2022/06/12 04:53:41;;;;;;;10.48;2.63;;;14.00;99.90;;;;;;5087302;28;20085;-70
2022/06/12 04:56:08;;;;;;;19.10;3.80;;;14.00;99.90;;;;;;5084590;28;20131;-71
2022/06/12 04:58:35;;;;;;;12.13;3.17;;;14.00;99.90;;;;;;5086595;28;20233;-71
2022/06/12 05:01:02;;;;;;;14.65;3.60;;;14.00;99.90;;;;;;5086901;28;20445;-70
2022/06/12 05:03:28;;;;;;;16.27;3.17;;;13.90;99.90;;;;;;5079241;28;20044;-71
2022/06/12 05:05:53;;;;;;;13.98;3.63;;;14.00;99.90;;;;;;5086840;28;20504;-71
2022/06/12 05:08:20;;;;;;;12.57;3.30;;;14.00;99.90;;;;;;5085115;28;20036;-71
2022/06/12 05:10:46;;;;;;;10.88;3.15;;;14.00;99.90;;;;;;5086655;28;20134;-70
2022/06/12 05:13:13;;;;;;;14.90;3.60;;;14.10;99.90;;;;;;5088172;28;20118;-71
2022/06/12 05:15:39;;;;;;;13.48;3.22;;;14.00;99.90;;;;;;5084263;28;20584;-70
2022/06/12 05:18:07;;;;;;;12.55;2.70;;;14.10;99.90;;;;;;5084402;28;20035;-70
2022/06/12 05:20:34;;;;;;;;;;;14.20;99.90;;;;;;5087957;28;20127;-71
2022/06/12 05:23:01;;;;;;;13.35;3.22;;;14.20;99.90;;;;;;5090870;28;20453;-71
2022/06/12 05:25:26;;;;;;;21.15;3.92;;;14.30;99.90;;;;;;5087231;28;20048;-71
2022/06/12 05:27:53;;;;;;;16.50;3.63;;;14.30;99.90;;;;;;5075763;28;20515;-71
2022/06/12 05:30:23;;;;;;;8.65;2.50;;;14.40;99.90;;;;;;5085692;28;20040;-71
2022/06/12 05:32:51;;;;;;;19.02;3.80;;;14.50;99.90;;;;;;5088674;28;20043;-70
2022/06/12 05:35:19;;;;;;;18.15;3.35;;;14.60;99.90;;;;;;5079626;28;20040;-71
2022/06/12 05:37:45;;;;;;;15.65;3.55;;;14.60;99.90;;;;;;5084086;28;20615;-71
2022/06/12 05:40:16;;;;;;;13.93;4.10;;;14.70;99.90;;;;;;5088578;28;20471;-70
2022/06/12 05:42:42;;;;;;;18.85;4.03;;;14.80;99.90;;;;;;5087312;28;20123;-70
2022/06/12 05:45:12;;;;;;;15.73;3.65;;;14.90;99.90;;;;;;5088285;28;20101;-71
2022/06/12 05:47:49;;;;;;;15.98;4.20;;;15.00;99.90;;;;;;5085730;28;20038;-71
2022/06/12 05:50:15;;;;;;;22.27;4.32;;;15.10;99.90;;;;;;5075905;28;20067;-71
2022/06/12 05:52:41;;;;;;;13.38;3.92;;;15.20;99.90;;;;;;5074975;28;20044;-71
2022/06/12 05:55:08;;;;;;;15.02;4.03;;;15.30;99.90;;;;;;5090151;28;20052;-71
2022/06/12 05:57:34;;;;;;;19.95;4.07;;;15.40;99.90;;;;;;5084523;28;20059;-71
2022/06/12 05:59:59;;;;;;;22.95;4.10;;;15.50;99.90;;;;;;5088417;28;20044;-71
2022/06/12 06:02:25;;;;;;;22.80;4.03;;;15.50;99.90;;;;;;5087870;28;20056;-71
2022/06/12 06:04:51;;;;;;;17.17;4.57;;;15.70;99.90;;;;;;5090734;28;20044;-70
2022/06/12 06:07:16;;;;;;;21.58;4.38;;;15.80;99.90;;;;;;5087745;28;20043;-70
2022/06/12 06:09:42;;;;;;;21.83;4.95;;;15.90;99.90;;;;;;5090234;28;20140;-71
2022/06/12 06:12:08;;;;;;;15.48;4.45;;;16.20;99.90;;;;;;5087909;28;20169;-71
2022/06/12 06:14:34;;;;;;;25.55;4.30;;;16.60;99.90;;;;;;5054974;28;20060;-71
2022/06/12 06:16:59;;;;;;;17.73;4.38;;;16.80;99.90;;;;;;5078863;28;20052;-71
2022/06/12 06:19:25;;;;;;;15.77;3.97;;;16.80;99.90;;;;;;5103961;28;20463;-71
2022/06/12 06:21:51;;;;;;;19.83;5.22;;;16.80;99.90;;;;;;5087536;28;20054;-70
2022/06/12 06:24:17;;;;;;;22.63;5.07;;;16.80;99.90;;;;;;5071047;28;20053;-72
2022/06/12 06:26:43;;;;;;;17.05;4.30;;;16.90;99.90;;;;;;5086686;28;20466;-70
2022/06/12 06:29:09;;;;;;;24.52;4.65;;;17.00;99.90;;;;;;5087726;28;20248;-71
2022/06/12 06:31:36;;;;;;;21.58;4.63;;;17.10;99.90;;;;;;5090242;28;20055;-72
2022/06/12 06:34:03;;;;;;;19.45;4.72;;;17.20;99.90;;;;;;5087821;28;20092;-72
2022/06/12 06:36:28;;;;;;;26.85;5.07;;;17.30;99.90;;;;;;5085993;28;20534;-71
2022/06/12 06:38:56;;;;;;;19.70;5.13;;;17.40;99.90;;;;;;5086003;28;20051;-71
2022/06/12 06:41:23;;;;;;;22.40;4.70;;;17.40;99.90;;;;;;5090011;28;20052;-71
2022/06/12 06:46:34;;;;;;;25.23;5.65;;;17.70;99.90;;;;;;5089983;28;20127;-72
2022/06/12 06:49:00;;;;;;;30.33;5.43;;;17.80;99.90;;;;;;5086806;28;20147;-72
2022/06/12 06:51:26;;;;;;;23.77;4.72;;;17.80;99.90;;;;;;5089329;28;20047;-71
2022/06/12 06:53:51;;;;;;;19.73;5.03;;;18.00;99.90;;;;;;5074999;28;20051;-70
2022/06/12 06:56:18;;;;;;;20.63;5.03;;;18.00;99.90;;;;;;5078163;28;20040;-70
2022/06/12 06:58:43;;;;;;;17.58;5.40;;;18.10;99.90;;;;;;5086039;28;20406;-70
2022/06/12 07:01:09;;;;;;;24.58;5.13;;;18.20;99.90;;;;;;5089292;28;20058;-69
2022/06/12 07:03:35;;;;;;;21.38;5.57;;;18.30;99.90;;;;;;5090034;28;20048;-70
2022/06/12 07:06:02;;;;;;;21.08;4.80;;;18.50;99.90;;;;;;5086790;28;20044;-71
2022/06/12 07:08:29;;;;;;;19.67;5.13;;;18.40;99.90;;;;;;5087289;28;20055;-71
2022/06/12 07:10:56;;;;;;;22.83;5.20;;;18.40;99.90;;;;;;5088794;28;20040;-70
2022/06/12 07:13:22;;;;;;;18.73;5.63;;;18.40;99.90;;;;;;5088870;28;20056;-70
2022/06/12 07:15:48;;;;;;;19.75;5.28;;;18.40;99.90;;;;;;5085525;28;20051;-71
2022/06/12 07:18:15;;;;;;;21.48;5.10;;;18.60;99.90;;;;;;5087320;28;20036;-70
2022/06/12 07:20:48;;;;;;;21.55;4.47;;;18.70;99.90;;;;;;5090671;28;20036;-71
2022/06/12 07:23:17;;;;;;;17.70;4.88;;;18.80;99.90;;;;;;5085413;28;20087;-70
2022/06/12 07:25:47;;;;;;;18.20;5.18;;;18.90;99.90;;;;;;5074371;28;20118;-70
2022/06/12 07:28:13;;;;;;;22.58;5.05;;;19.10;99.90;;;;;;5089320;28;20416;-71
2022/06/12 07:30:39;;;;;;;16.70;5.00;;;19.20;99.90;;;;;;5064901;28;20044;-70
2022/06/12 07:33:07;;;;;;;25.25;4.63;;;19.20;99.90;;;;;;5088194;28;20444;-71
2022/06/12 07:35:35;;;;;;;17.83;4.28;;;19.20;99.90;;;;;;5087662;28;20498;-71
2022/06/12 07:38:02;;;;;;;16.52;4.78;;;19.30;99.90;;;;;;5085587;28;20074;-69
2022/06/12 07:40:37;;;;;;;19.53;4.43;;;19.40;99.90;;;;;;5089197;28;20051;-70
2022/06/12 07:43:03;;;;;;;14.80;4.55;;;19.50;99.90;;;;;;5080684;28;20917;-71
2022/06/12 07:45:30;;;;;;;22.88;5.30;;;19.70;99.90;;;;;;5075670;28;20137;-70
2022/06/12 07:47:58;;;;;;;20.02;4.50;;;19.90;99.90;;;;;;5103536;28;20048;-71
2022/06/12 07:50:23;;;;;;;17.48;4.00;;;20.00;99.90;;;;;;5088658;28;20058;-71
2022/06/12 07:52:49;;;;;;;18.08;4.68;;;20.00;99.90;;;;;;5080881;28;20051;-71
2022/06/12 07:55:18;;;;;;;21.33;4.30;;;20.10;99.90;;;;;;5088986;28;20036;-71
2022/06/12 07:57:44;;;;;;;15.38;3.58;;;20.10;99.90;;;;;;5087887;28;20046;-71
2022/06/12 08:00:13;;;;;;;17.88;3.60;;;20.10;99.90;;;;;;5089383;28;20040;-71
2022/06/12 08:02:40;;;;;;;14.82;3.28;;;20.10;99.90;;;;;;5081296;28;20067;-70
2022/06/12 08:05:07;;;;;;;17.70;4.32;;;20.20;99.90;;;;;;5088511;28;20044;-71
2022/06/12 08:07:34;;;;;;;18.60;3.92;;;20.30;99.90;;;;;;5102095;28;20036;-70
2022/06/12 08:10:00;;;;;;;17.13;4.17;;;20.40;99.90;;;;;;5086197;28;20405;-70
2022/06/12 08:12:26;;;;;;;18.25;4.13;;;20.50;99.90;;;;;;5080672;28;20305;-69
2022/06/12 08:14:53;;;;;;;17.48;4.07;;;20.70;99.90;;;;;;5088084;28;20424;-70
2022/06/12 08:17:19;;;;;;;15.65;4.32;;;20.80;99.90;;;;;;5086423;28;20083;-69
2022/06/12 08:22:29;;;;;;;14.40;3.90;;;20.80;99.90;;;;;;5082039;28;20052;-71
2022/06/12 08:24:54;;;;;;;16.73;3.90;;;21.00;99.90;;;;;;5085622;28;20619;-70
2022/06/12 08:27:20;;;;;;;17.67;4.70;;;21.20;99.90;;;;;;5087537;28;20051;-70
2022/06/12 08:29:46;;;;;;;17.92;3.78;;;21.30;99.90;;;;;;5087800;28;20596;-69
2022/06/12 08:32:16;;;;;;;15.30;4.15;;;21.40;99.90;;;;;;5084153;28;20039;-71
2022/06/12 08:34:51;;;;;;;13.93;3.95;;;21.60;99.90;;;;;;5087765;28;20040;-70
2022/06/12 08:37:20;;;;;;;14.93;3.83;;;21.60;99.90;;;;;;5084424;28;20066;-70
2022/06/12 08:39:47;;;;;;;13.23;3.35;;;21.70;99.90;;;;;;5083190;28;20036;-71
2022/06/12 08:42:28;;;;;;;14.68;3.60;;;21.70;99.90;;;;;;5087046;28;20135;-70
2022/06/12 08:45:07;;;;;;;18.00;4.15;;;21.70;99.90;;;;;;5072579;28;20102;-71
2022/06/12 08:47:39;;;;;;;17.40;3.60;;;21.60;99.90;;;;;;5092179;28;20084;-72
2022/06/12 08:50:35;;;;;;;14.40;3.65;;;21.70;99.90;;;;;;5081160;28;20044;-72
2022/06/12 08:53:32;;;;;;;16.63;4.22;;;21.60;99.90;;;;;;5067581;28;20056;-70
2022/06/12 08:56:08;;;;;;;14.32;3.28;;;21.50;99.90;;;;;;5084820;28;20194;-70
2022/06/12 08:59:18;;;;;;;11.60;2.90;;;21.40;99.90;;;;;;5086986;28;20134;-70
2022/06/12 09:01:43;;;;;;;;;;;21.50;99.90;;;;;;5079908;28;20444;-69
2022/06/12 09:04:16;;;;;;;13.50;3.13;;;21.70;99.90;;;;;;5085458;28;19924;-69
2022/06/12 09:06:47;;;;;;;12.05;3.40;;;21.80;99.90;;;;;;5084869;28;20043;-70
2022/06/12 09:09:21;;;;;;;13.10;3.75;;;22.00;99.90;;;;;;5085000;28;20104;-69
2022/06/12 09:11:49;;;;;;;12.45;3.55;;;22.10;99.90;;;;;;5082795;28;20044;-69
2022/06/12 09:14:50;;;;;;;13.43;3.50;;;22.30;99.90;;;;;;5085791;28;20127;-69
2022/06/12 09:17:16;;;;;;;13.68;3.30;;;22.50;99.90;;;;;;5080381;28;20048;-68
2022/06/12 09:19:48;;;;;;;13.23;3.28;;;22.50;99.90;;;;;;5079444;28;20097;-69
2022/06/12 09:22:54;;;;;;;13.43;3.33;;;22.50;99.90;;;;;;5084566;28;20140;-70
2022/06/12 09:25:26;;;;;;;17.13;3.85;;;22.60;99.90;;;;;;5078006;28;20048;-70
2022/06/12 09:28:29;;;;;;;11.70;3.75;;;22.50;99.90;;;;;;5082971;28;20120;-70
2022/06/12 09:31:23;;;;;;;12.63;3.67;;;22.30;99.90;;;;;;5082383;28;20060;-68
2022/06/12 09:34:07;;;;;;;15.18;3.40;;;22.00;99.90;;;;;;5086723;28;20055;-68
2022/06/12 09:40:33;;;;;;;15.02;3.85;;;22.10;99.90;;;;;;5089532;28;20083;-68
2022/06/12 09:43:15;;;;;;;12.18;3.20;;;22.30;99.90;;;;;;5080663;28;20099;-70
2022/06/12 09:45:57;;;;;;;13.02;3.55;;;22.50;99.90;;;;;;5088344;28;20044;-68
2022/06/12 09:48:33;;;;;;;12.93;3.35;;;22.70;98.50;;;;;;5088679;28;20111;-70
2022/06/12 09:51:16;;;;;;;15.35;4.10;;;22.80;99.50;;;;;;5090036;28;20047;-70
2022/06/12 09:53:54;;;;;;;11.98;2.78;;;22.90;99.90;;;;;;5107474;28;20139;-69
2022/06/12 09:56:33;;;;;;;10.25;3.00;;;22.90;97.90;;;;;;5086603;28;20179;-69
2022/06/12 09:59:18;;;;;;;12.18;2.63;;;22.60;97.80;;;;;;5088363;28;20060;-70
2022/06/12 10:01:49;;;;;;;9.82;3.13;;;22.30;97.20;;;;;;5081304;28;20059;-70
2022/06/12 10:04:25;;;;;;;9.38;2.60;;;22.20;97.70;;;;;;5090167;28;20036;-69
2022/06/12 10:07:02;;;;;;;9.45;3.13;;;22.40;97.60;;;;;;5089673;28;20047;-68
2022/06/12 10:09:37;;;;;;;14.00;2.90;;;22.40;95.00;;;;;;5087888;28;20126;-69
2022/06/12 10:12:08;;;;;;;8.65;2.25;;;22.70;95.50;;;;;;5090850;28;20494;-68
2022/06/12 10:14:56;;;;;;;7.97;2.22;;;22.90;94.60;;;;;;5090881;28;20993;-69
2022/06/12 10:17:38;;;;;;;7.53;2.17;;;23.10;92.10;;;;;;5089080;28;20082;-69
2022/06/12 10:20:12;;;;;;;11.52;2.20;;;23.30;92.20;;;;;;5082575;28;20170;-68
2022/06/12 10:22:47;;;;;;;7.28;2.00;;;23.40;91.40;;;;;;5088524;28;20043;-68
2022/06/12 10:25:19;;;;;;;5.80;1.90;;;23.30;86.50;;;;;;5083977;28;20572;-68
2022/06/12 10:27:52;;;;;;;8.48;2.20;;;23.20;87.30;;;;;;5085674;28;20486;-69
2022/06/12 10:30:44;;;;;;;11.38;1.77;;;23.30;88.90;;;;;;5087249;28;20043;-69
2022/06/12 10:33:13;;;;;;;7.32;2.03;;;23.70;88.70;;;;;;5086786;28;20036;-69
2022/06/12 10:36:08;;;;;;;7.30;2.03;;;23.90;87.30;;;;;;5084147;28;20059;-70
2022/06/12 10:38:37;;;;;;;4.93;1.83;;;24.00;89.10;;;;;;5079503;28;20127;-70
2022/06/12 10:41:06;;;;;;;6.88;2.08;;;24.20;89.90;;;;;;5089094;28;20112;-69
2022/06/12 10:43:45;;;;;;;4.78;2.13;;;24.40;89.20;;;;;;5085468;28;20052;-66
2022/06/12 10:46:14;;;;;;;7.25;2.05;;;24.30;82.60;;;;;;5090060;28;20097;-68
2022/06/12 10:48:40;;;;;;;7.13;2.20;;;24.10;84.50;;;;;;5102666;28;20067;-69
2022/06/12 10:51:17;;;;;;;9.50;2.63;;;23.70;84.80;;;;;;5085514;28;20390;-69
2022/06/12 10:53:43;;;;;;;9.43;2.50;;;23.40;85.50;;;;;;5073203;28;20044;-69
2022/06/12 10:56:46;;;;;;;6.85;1.95;;;23.40;84.30;;;;;;5088470;28;20313;-71
2022/06/12 10:59:40;;;;;;;5.90;2.28;;;23.60;88.60;;;;;;5089813;28;20048;-69
2022/06/12 11:02:08;;;;;;;6.07;2.05;;;23.80;86.00;;;;;;5073607;28;20067;-70
2022/06/12 11:04:46;;;;;;;5.18;1.98;;;24.00;89.60;;;;;;5088113;28;20044;-66
2022/06/12 11:07:44;;;;;;;8.55;2.60;;;24.30;84.70;;;;;;5084697;28;20511;-69
2022/06/12 11:10:28;;;;;;;5.65;1.92;;;24.40;83.10;;;;;;5085901;28;20043;-70
2022/06/12 11:13:11;;;;;;;10.20;2.30;;;24.40;82.40;;;;;;5075875;28;20047;-69
2022/06/12 11:16:07;;;;;;;7.30;2.20;;;24.60;82.20;;;;;;5079670;28;20047;-67
2022/06/12 11:19:02;;;;;;;14.02;2.55;;;24.70;78.50;;;;;;5077917;28;20093;-69
2022/06/12 11:21:55;;;;;;;11.15;2.58;;;24.60;82.40;;;;;;5021427;28;20076;-69
2022/06/12 11:24:28;;;;;;;6.45;2.00;;;24.80;80.80;;;;;;5086893;28;20060;-70
2022/06/12 11:27:02;;;;;;;7.95;2.05;;;25.00;80.30;;;;;;5085529;28;20122;-70
2022/06/12 11:29:56;;;;;;;7.85;2.40;;;25.20;81.30;;;;;;5084447;28;20475;-68
2022/06/12 11:32:27;;;;;;;8.35;2.67;;;25.10;78.50;;;;;;5085999;28;20048;-69
2022/06/12 11:35:49;;;;;;;8.55;2.60;;;25.00;79.10;;;;;;5082131;28;21176;-68
2022/06/12 11:38:24;;;;;;;7.82;2.30;;;24.60;77.80;;;;;;5079410;28;20058;-68
2022/06/12 11:41:07;;;;;;;8.20;2.63;;;24.40;77.80;;;;;;5083998;28;20139;-68
2022/06/12 11:43:40;;;;;;;10.65;2.45;;;24.20;79.90;;;;;;5083313;28;20047;-67
2022/06/12 11:46:41;;;;;;;9.63;2.30;;;24.20;78.60;;;;;;5087333;28;20040;-67
2022/06/12 11:49:44;;;;;;;8.15;3.03;;;24.10;78.40;;;;;;5078026;28;20047;-68
2022/06/12 11:52:20;;;;;;;6.38;2.28;;;23.90;77.50;;;;;;5088079;28;20040;-66
2022/06/12 11:55:17;;;;;;;8.93;2.47;;;24.00;80.70;;;;;;5085793;28;20044;-66
2022/06/12 11:57:58;;;;;;;6.55;2.05;;;24.00;78.10;;;;;;5086793;28;20052;-68
2022/06/12 12:00:44;;;;;;;10.55;3.15;;;23.90;76.70;;;;;;5086667;28;20044;-67
2022/06/12 12:03:28;;;;;;;7.60;2.17;;;23.90;81.40;;;;;;5085713;28;20105;-67
2022/06/12 12:06:04;;;;;;;10.65;2.45;;;24.10;78.10;;;;;;5085603;28;20081;-68
2022/06/12 12:08:30;;;;;;;11.50;2.17;;;24.30;78.80;;;;;;5089561;28;20376;-67
2022/06/12 12:11:07;;;;;;;14.88;2.47;;;24.20;75.40;;;;;;5085073;28;20036;-68
2022/06/12 12:13:55;;;;;;;10.35;2.33;;;24.00;76.30;;;;;;5079119;28;20139;-66
2022/06/12 12:17:00;;;;;;;10.63;2.35;;;24.00;77.80;;;;;;5087166;28;20044;-67
2022/06/12 12:19:51;;;;;;;5.43;2.05;;;23.70;75.00;;;;;;5078524;28;20048;-68
2022/06/12 12:22:22;;;;;;;9.20;1.98;;;23.40;73.00;;;;;;5063654;28;20509;-68
2022/06/12 12:25:01;;;;;;;7.20;1.90;;;23.00;74.30;;;;;;5084906;28;20082;-68
2022/06/12 12:27:38;;;;;;;9.05;2.35;;;22.90;77.30;;;;;;5084708;28;20050;-67
2022/06/12 12:30:38;;;;;;;6.03;2.22;;;23.00;76.70;;;;;;5079008;28;20071;-68
2022/06/12 12:33:09;;;;;;;8.35;2.00;;;23.30;77.90;;;;;;5077364;28;20056;-66
2022/06/12 12:41:22;;;;;;;7.65;2.35;;;24.20;75.80;;;;;;5086068;28;20052;-67
2022/06/12 12:44:00;;;;;;;11.77;2.50;;;24.40;75.60;;;;;;5082203;28;20051;-66
2022/06/12 12:46:59;;;;;;;6.22;2.00;;;24.20;75.00;;;;;;5082702;28;20075;-69
2022/06/12 12:49:30;;;;;;;;;;;24.30;76.90;;;;;;5064976;28;20134;-67
2022/06/12 12:52:20;;;;;;;7.78;2.38;;;24.50;75.70;;;;;;5082576;28;20228;-67
2022/06/12 12:54:52;;;;;;;7.30;2.33;;;24.70;75.20;;;;;;5084828;28;20495;-68
2022/06/12 12:57:21;;;;;;;7.10;2.00;;;24.70;73.10;;;;;;5082624;28;20044;-68
2022/06/12 12:59:52;;;;;;;6.88;1.80;;;24.70;73.90;;;;;;5086099;28;20362;-67
2022/06/12 13:02:25;;;;;;;10.35;2.10;;;24.50;73.10;;;;;;5086148;28;20052;-68
2022/06/12 13:04:55;;;;;;;8.48;2.40;;;24.30;72.70;;;;;;5077693;28;20048;-67
2022/06/12 13:07:40;;;;;;;7.45;2.22;;;24.40;73.30;;;;;;5083927;28;20127;-68
2022/06/12 13:10:25;;;;;;;6.07;2.10;;;24.60;71.90;;;;;;5071505;28;20126;-68
2022/06/12 13:13:31;;;;;;;8.57;2.40;;;24.00;72.70;;;;;;5085482;28;20052;-68
2022/06/12 13:16:17;;;;;;;7.28;2.53;;;23.90;75.40;;;;;;5061895;28;20064;-67
2022/06/12 13:18:55;;;;;;;8.75;2.38;;;24.30;74.80;;;;;;5086574;28;20047;-68
2022/06/12 13:21:33;;;;;;;8.48;2.15;;;24.20;74.40;;;;;;5103949;28;20051;-67
2022/06/12 13:24:01;;;;;;;9.93;2.45;;;24.00;74.80;;;;;;5080038;28;20082;-66
2022/06/12 13:26:30;;;;;;;7.20;2.40;;;23.80;73.30;;;;;;5080842;28;20473;-67
2022/06/12 13:28:59;;;;;;;10.93;2.80;;;23.90;75.90;;;;;;5086529;28;20397;-67
2022/06/12 13:31:29;;;;;;;7.35;2.42;;;24.20;76.10;;;;;;5087988;28;20051;-68
2022/06/12 13:33:58;;;;;;;10.48;2.58;;;24.50;73.60;;;;;;5077197;28;20067;-66
2022/06/12 13:36:36;;;;;;;7.00;2.35;;;24.70;74.40;;;;;;5086247;28;20094;-67